Terminal Aerodrome Forecast
Issued by NWS Sterling, VA

Current Version | Previous Version | Graphics & Text | Print | Product List | Glossary On
Versions: 1 2 3 4 5 6 7 8 9 10 11 12 13 14 15 16 17
581
FTUS41 KLWX 212337
TAFIAD
TAF
KIAD 212337Z 2200/2306 07004KT P6SM SCT060
     FM220200 31004KT P6SM BKN060
     FM221100 36008KT P6SM OVC060
     FM221400 35008KT P6SM OVC030
     FM221800 35005KT 4SM -RA OVC020=

USA.gov is the U.S. government's official web portal to all federal, state and local government web resources and services.